createdAt,value
2022-08-17T00:00:34.618Z,65.00
2022-08-17T00:03:04.594Z,65.45
2022-08-17T00:05:35.753Z,66.48
2022-08-17T00:08:06.135Z,66.34
2022-08-17T00:10:34.954Z,64.18
2022-08-17T00:13:07.759Z,64.72
2022-08-17T00:15:35.880Z,67.19
2022-08-17T00:18:03.977Z,67.80
2022-08-17T00:20:51.972Z,66.63
2022-08-17T00:23:21.263Z,66.37
2022-08-17T00:25:49.367Z,67.06
2022-08-17T00:28:18.228Z,67.95
2022-08-17T00:30:52.935Z,69.28
2022-08-17T00:33:24.191Z,68.72
2022-08-17T00:35:52.439Z,68.86
2022-08-17T00:38:22.886Z,70.25
2022-08-17T00:40:55.985Z,67.63
2022-08-17T00:43:32.948Z,66.59
2022-08-17T00:46:03.214Z,66.45
2022-08-17T00:48:32.086Z,66.46
2022-08-17T00:51:04.198Z,66.94
2022-08-17T00:53:36.653Z,66.92
2022-08-17T00:56:09.004Z,67.08
2022-08-17T00:58:37.832Z,66.88
2022-08-17T01:01:07.888Z,65.79
2022-08-17T01:03:38.458Z,68.69
2022-08-17T01:06:09.088Z,66.75
2022-08-17T01:08:40.576Z,68.14
2022-08-17T01:11:09.572Z,67.92
2022-08-17T01:13:41.780Z,68.68
2022-08-17T01:16:16.692Z,67.81
2022-08-17T01:18:45.701Z,68.18
2022-08-17T01:21:21.332Z,70.32
2022-08-17T01:23:50.715Z,68.65
2022-08-17T01:26:19.185Z,68.49
2022-08-17T01:28:54.181Z,68.50
2022-08-17T01:31:28.830Z,69.00
2022-08-17T01:33:59.463Z,69.12
2022-08-17T01:36:30.526Z,67.05
2022-08-17T01:39:00.136Z,69.93
2022-08-17T01:41:29.372Z,70.33
2022-08-17T01:44:01.489Z,68.76
2022-08-17T01:46:33.420Z,69.69
2022-08-17T01:49:01.916Z,70.52
2022-08-17T01:51:33.262Z,69.29
2022-08-17T01:54:07.589Z,69.34
2022-08-17T01:56:38.158Z,70.04
2022-08-17T01:59:06.427Z,68.89
2022-08-17T02:01:35.839Z,68.87
2022-08-17T02:04:04.634Z,71.43
2022-08-17T02:06:52.813Z,71.70
2022-08-17T02:09:25.702Z,70.30
2022-08-17T02:11:54.765Z,71.07
2022-08-17T02:14:25.824Z,70.47
2022-08-17T02:16:54.743Z,71.46
2022-08-17T02:19:23.597Z,71.82
2022-08-17T02:21:53.565Z,71.66
2022-08-17T02:24:58.933Z,71.65
2022-08-17T02:27:14.490Z,71.51
2022-08-17T02:29:42.529Z,71.66
2022-08-17T02:32:27.372Z,72.51
2022-08-17T02:34:57.147Z,72.41
2022-08-17T02:37:25.563Z,71.27
2022-08-17T02:39:56.951Z,70.36
2022-08-17T02:42:28.595Z,71.24
2022-08-17T02:44:56.648Z,73.94
2022-08-17T02:47:24.632Z,74.12
2022-08-17T02:49:55.499Z,72.44
2022-08-17T02:52:42.487Z,72.25
2022-08-17T02:55:16.288Z,74.58
2022-08-17T02:57:44.611Z,73.17
2022-08-17T03:00:16.192Z,72.78
2022-08-17T03:02:45.623Z,73.40
2022-08-17T03:05:15.774Z,72.41
2022-08-17T03:07:44.206Z,72.38
2022-08-17T03:10:14.236Z,72.31
2022-08-17T03:12:43.331Z,72.09
2022-08-17T03:15:13.915Z,73.21
2022-08-17T03:17:41.988Z,73.91
2022-08-17T03:20:11.405Z,72.93
2022-08-17T03:22:42.942Z,72.30
2022-08-17T03:25:21.445Z,72.42
2022-08-17T03:27:51.422Z,72.62
2022-08-17T03:30:22.389Z,71.88
2022-08-17T03:32:52.893Z,72.87
2022-08-17T03:35:24.159Z,73.02
2022-08-17T03:37:59.995Z,73.16
2022-08-17T03:40:55.728Z,73.62
2022-08-17T03:43:21.089Z,74.29
2022-08-17T03:46:11.031Z,73.03
2022-08-17T03:49:13.059Z,74.37
2022-08-17T03:51:58.434Z,76.16
2022-08-17T03:54:44.342Z,74.02
2022-08-17T03:57:14.153Z,73.95
2022-08-17T03:59:42.539Z,73.83
2022-08-17T04:02:13.470Z,74.98
2022-08-17T04:04:41.796Z,74.00
2022-08-17T04:07:09.851Z,73.97
2022-08-17T04:09:37.892Z,75.32
2022-08-17T04:12:06.620Z,75.36
2022-08-17T04:14:51.900Z,74.46
2022-08-17T04:17:23.157Z,75.57
2022-08-17T04:19:51.123Z,75.90
2022-08-17T04:22:32.421Z,74.05
2022-08-17T04:25:05.120Z,74.49
2022-08-17T04:27:33.122Z,74.25
2022-08-17T04:30:02.945Z,72.87
2022-08-17T04:33:05.192Z,73.84
2022-08-17T04:35:21.449Z,74.27
2022-08-17T04:37:49.638Z,72.99
2022-08-17T04:40:36.146Z,74.54
2022-08-17T04:43:07.068Z,73.45
2022-08-17T04:45:40.142Z,73.59
2022-08-17T04:48:23.321Z,73.98
2022-08-17T04:50:56.152Z,74.28
2022-08-17T04:53:24.090Z,73.60
2022-08-17T04:55:53.245Z,73.84
2022-08-17T04:58:21.724Z,74.65
2022-08-17T05:00:51.192Z,74.56
2022-08-17T05:03:19.190Z,74.69
2022-08-17T05:05:49.434Z,73.88
2022-08-17T05:08:19.243Z,73.18
2022-08-17T05:10:48.404Z,73.24
2022-08-17T05:13:20.605Z,74.10
2022-08-17T05:15:54.874Z,73.32
2022-08-17T05:18:24.641Z,74.39
2022-08-17T05:20:53.621Z,72.74
2022-08-17T05:23:24.395Z,72.39
2022-08-17T05:25:56.353Z,71.16
2022-08-17T05:28:27.559Z,71.11
2022-08-17T05:31:00.342Z,70.13
2022-08-17T05:33:31.118Z,69.90
2022-08-17T05:36:01.193Z,70.18
2022-08-17T05:38:30.460Z,71.33
2022-08-17T05:40:59.270Z,70.66
2022-08-17T05:43:29.497Z,69.68
2022-08-17T05:46:03.929Z,67.82
2022-08-17T05:48:43.660Z,67.49
2022-08-17T05:51:40.245Z,67.45
2022-08-17T05:54:24.666Z,66.51
2022-08-17T05:57:09.161Z,66.19
2022-08-17T05:59:48.540Z,64.17
2022-08-17T06:02:25.679Z,63.07
2022-08-17T06:05:08.935Z,65.39
2022-08-17T06:07:41.767Z,63.97
2022-08-17T06:10:15.156Z,63.86
2022-08-17T06:12:54.763Z,63.78
2022-08-17T06:15:30.945Z,63.09
2022-08-17T06:18:02.982Z,64.50
2022-08-17T06:20:38.083Z,63.27
2022-08-17T06:23:12.013Z,62.20
2022-08-17T06:25:46.587Z,63.68
2022-08-17T06:28:17.969Z,57.65
2022-08-17T06:31:00.338Z,62.64
2022-08-17T06:33:35.134Z,63.13
2022-08-17T06:36:16.013Z,58.65
2022-08-17T06:38:54.403Z,58.49
2022-08-17T06:41:27.550Z,60.43
2022-08-17T06:44:43.692Z,57.01
2022-08-17T06:47:09.002Z,53.29
2022-08-17T06:49:44.938Z,54.77
2022-08-17T06:52:45.355Z,52.14
2022-08-17T06:55:21.275Z,54.62
2022-08-17T06:57:53.621Z,56.22
2022-08-17T07:00:24.473Z,55.71
2022-08-17T07:02:58.515Z,51.00
2022-08-17T07:05:34.967Z,53.65
2022-08-17T07:08:11.577Z,53.04
2022-08-17T07:10:44.826Z,50.97
2022-08-17T07:13:34.853Z,52.28
2022-08-17T07:16:15.066Z,50.75
2022-08-17T07:18:43.784Z,50.62
2022-08-17T07:21:38.496Z,52.32
2022-08-17T07:24:41.945Z,51.46
2022-08-17T07:27:14.110Z,50.18
2022-08-17T07:29:47.838Z,49.59
2022-08-17T07:32:19.513Z,49.78
2022-08-17T07:35:11.430Z,49.16
2022-08-17T07:37:42.623Z,46.66
2022-08-17T07:40:28.125Z,46.61
2022-08-17T07:43:08.080Z,47.62
2022-08-17T07:46:27.413Z,48.28
2022-08-17T07:48:57.595Z,47.62
2022-08-17T07:51:29.163Z,48.74
2022-08-17T07:54:13.932Z,47.86
2022-08-17T07:56:45.982Z,44.33
2022-08-17T07:59:18.083Z,45.20
2022-08-17T08:02:10.243Z,44.80
2022-08-17T08:07:31.873Z,44.59
2022-08-17T08:10:10.923Z,42.42
2022-08-17T08:12:42.191Z,41.93
2022-08-17T08:15:18.646Z,41.80
2022-08-17T08:17:50.477Z,41.20
2022-08-17T08:20:52.563Z,42.14
2022-08-17T08:23:25.588Z,41.36
2022-08-17T08:26:05.250Z,42.20
2022-08-17T08:28:43.403Z,42.66
2022-08-17T08:31:24.480Z,42.37
2022-08-17T08:34:06.916Z,41.16
2022-08-17T08:36:56.857Z,40.23
2022-08-17T08:39:55.100Z,38.89
2022-08-17T08:42:32.938Z,39.80
2022-08-17T08:45:09.467Z,41.22
2022-08-17T08:47:58.056Z,39.14
2022-08-17T08:50:46.591Z,38.40
2022-08-17T08:53:28.619Z,37.99
2022-08-17T08:56:01.356Z,38.48
2022-08-17T08:58:41.270Z,39.94
2022-08-17T09:01:19.353Z,39.09
2022-08-17T09:04:21.478Z,38.55
2022-08-17T09:07:05.010Z,37.86
2022-08-17T09:09:43.779Z,39.24
2022-08-17T09:12:22.390Z,38.04
2022-08-17T09:14:58.851Z,37.80
2022-08-17T09:17:35.564Z,38.56
2022-08-17T09:20:13.741Z,37.21
2022-08-17T09:23:03.958Z,37.62
2022-08-17T09:25:36.319Z,37.24
2022-08-17T09:28:07.610Z,36.58
2022-08-17T09:30:45.474Z,35.30
2022-08-17T09:33:17.609Z,32.32
2022-08-17T09:35:50.845Z,33.67
2022-08-17T09:38:27.074Z,31.32
2022-08-17T09:41:02.913Z,31.54
2022-08-17T09:43:40.051Z,33.52
2022-08-17T09:46:16.972Z,29.67
2022-08-17T09:48:55.268Z,31.16
2022-08-17T09:51:32.601Z,32.10
2022-08-17T09:54:21.010Z,33.38
2022-08-17T09:57:28.148Z,34.24
2022-08-17T10:00:07.999Z,33.75
2022-08-17T10:03:16.360Z,33.54
2022-08-17T10:05:51.272Z,28.99
2022-08-17T10:08:34.743Z,30.36
2022-08-17T10:11:33.597Z,30.70
2022-08-17T10:14:36.757Z,31.53
2022-08-17T10:17:08.870Z,31.31
2022-08-17T10:19:40.232Z,32.01
2022-08-17T10:22:41.907Z,31.92
2022-08-17T10:25:53.574Z,31.08
2022-08-17T10:28:28.723Z,31.96
2022-08-17T10:31:33.241Z,31.81
2022-08-17T10:34:01.592Z,29.30
2022-08-17T10:36:40.929Z,31.92
2022-08-17T10:39:20.882Z,31.78
2022-08-17T10:41:52.784Z,32.27
2022-08-17T10:44:38.902Z,28.98
2022-08-17T10:47:11.631Z,28.09
2022-08-17T10:49:44.229Z,27.87
2022-08-17T10:52:41.936Z,29.28
2022-08-17T10:55:20.349Z,29.11
2022-08-17T10:57:50.669Z,27.85
2022-08-17T11:01:02.328Z,29.64
2022-08-17T11:03:33.205Z,29.97
2022-08-17T11:06:15.971Z,29.94
2022-08-17T11:09:11.788Z,29.86
2022-08-17T11:11:52.834Z,29.32
2022-08-17T11:14:36.019Z,28.46
2022-08-17T11:17:16.261Z,27.61
2022-08-17T11:20:04.581Z,25.33
2022-08-17T11:23:23.868Z,26.08
2022-08-17T11:25:54.825Z,26.90
2022-08-17T11:28:28.035Z,27.56
2022-08-17T11:30:59.372Z,24.67
2022-08-17T11:33:56.441Z,28.44
2022-08-17T11:36:38.712Z,24.55
2022-08-17T11:39:20.314Z,30.10
2022-08-17T11:41:55.827Z,29.47
2022-08-17T11:44:37.736Z,29.75
2022-08-17T11:47:29.943Z,27.30
2022-08-17T11:50:42.548Z,29.89
2022-08-17T11:56:59.949Z,26.28
2022-08-17T11:59:59.473Z,25.34
2022-08-17T12:02:47.462Z,25.39
2022-08-17T12:05:35.150Z,25.89
2022-08-17T12:08:15.169Z,25.60
2022-08-17T12:10:54.165Z,26.38
2022-08-17T12:13:23.740Z,27.68
2022-08-17T12:15:59.975Z,25.15
2022-08-17T12:18:30.377Z,26.13
2022-08-17T12:21:28.546Z,26.18
2022-08-17T12:24:03.275Z,26.54
2022-08-17T12:26:33.942Z,26.43
2022-08-17T12:29:04.394Z,25.44
2022-08-17T12:31:37.147Z,28.06
2022-08-17T12:34:06.480Z,25.90
2022-08-17T12:36:35.064Z,29.46
2022-08-17T12:39:13.697Z,26.25
2022-08-17T12:41:45.109Z,26.85
2022-08-17T12:44:17.706Z,28.35
2022-08-17T12:46:51.320Z,26.93
2022-08-17T12:49:31.664Z,26.33
2022-08-17T12:52:15.785Z,25.80
2022-08-17T12:54:50.972Z,26.34
2022-08-17T12:57:21.757Z,27.83
2022-08-17T12:59:55.493Z,28.14
2022-08-17T13:02:30.948Z,30.57
2022-08-17T13:05:01.964Z,28.39
2022-08-17T13:07:35.526Z,26.43
2022-08-17T13:10:05.138Z,30.77
2022-08-17T13:12:36.631Z,30.38
2022-08-17T13:15:05.177Z,27.28
2022-08-17T13:17:37.059Z,27.09
2022-08-17T13:20:15.690Z,26.55
2022-08-17T13:22:44.505Z,26.67
2022-08-17T13:25:17.818Z,26.72
2022-08-17T13:27:55.360Z,29.54
2022-08-17T13:30:28.049Z,30.03
2022-08-17T13:32:58.600Z,28.23
2022-08-17T13:35:41.154Z,29.08
2022-08-17T13:38:12.343Z,27.17
2022-08-17T13:40:44.338Z,26.21
2022-08-17T13:43:13.204Z,26.77
2022-08-17T13:45:50.794Z,26.97
2022-08-17T13:48:32.074Z,26.48
2022-08-17T13:51:34.534Z,27.95
2022-08-17T13:54:07.360Z,26.45
2022-08-17T13:56:40.739Z,28.21
2022-08-17T13:59:12.359Z,27.86
2022-08-17T14:01:43.052Z,27.06
2022-08-17T14:04:15.675Z,27.10
2022-08-17T14:06:52.612Z,26.71
2022-08-17T14:09:24.966Z,27.42
2022-08-17T14:11:54.051Z,33.27
2022-08-17T14:14:23.214Z,31.90
2022-08-17T14:16:51.604Z,28.59
2022-08-17T14:19:21.781Z,29.86
2022-08-17T14:21:50.354Z,29.21
2022-08-17T14:24:24.039Z,28.27
2022-08-17T14:26:53.343Z,28.13
2022-08-17T14:29:21.722Z,28.30
2022-08-17T14:31:54.256Z,28.89
2022-08-17T14:34:25.446Z,30.19
2022-08-17T14:36:53.535Z,31.79
2022-08-17T14:39:21.956Z,27.77
2022-08-17T14:41:50.194Z,27.52
2022-08-17T14:44:18.284Z,27.17
2022-08-17T14:46:47.966Z,27.46
2022-08-17T14:49:16.142Z,27.41
2022-08-17T14:51:45.472Z,26.86
2022-08-17T14:54:33.076Z,28.08
2022-08-17T14:57:25.744Z,27.72
2022-08-17T14:59:55.217Z,27.80
2022-08-17T15:02:29.375Z,27.50
2022-08-17T15:05:02.733Z,28.57
2022-08-17T15:07:32.331Z,28.62
2022-08-17T15:10:01.343Z,27.67
2022-08-17T15:12:34.627Z,30.16
2022-08-17T15:15:04.936Z,28.34
2022-08-17T15:17:43.920Z,28.67
2022-08-17T15:20:16.418Z,29.34
2022-08-17T15:22:49.728Z,28.15
2022-08-17T15:25:19.853Z,28.95
2022-08-17T15:27:48.054Z,28.55
2022-08-17T15:30:16.257Z,31.09
2022-08-17T15:32:50.786Z,29.23
2022-08-17T15:35:27.416Z,29.22
2022-08-17T15:38:07.984Z,30.68
2022-08-17T15:40:40.854Z,31.25
2022-08-17T15:43:11.263Z,29.56
2022-08-17T15:45:40.513Z,29.22
2022-08-17T15:48:09.108Z,31.22
2022-08-17T15:50:37.319Z,28.31
2022-08-17T15:53:06.840Z,30.21
2022-08-17T15:55:36.590Z,29.76
2022-08-17T15:58:04.749Z,28.58
2022-08-17T16:00:42.015Z,29.01
2022-08-17T16:03:58.108Z,28.93
2022-08-17T16:06:09.091Z,29.73
2022-08-17T16:08:43.665Z,30.25
2022-08-17T16:11:12.816Z,29.74
2022-08-17T16:13:41.724Z,29.39
2022-08-17T16:16:16.082Z,28.83
2022-08-17T16:18:44.418Z,30.56
2022-08-17T16:21:27.192Z,29.04
2022-08-17T16:23:59.484Z,29.60
2022-08-17T16:26:28.362Z,29.28
2022-08-17T16:28:57.517Z,28.71
2022-08-17T16:31:25.873Z,29.75
2022-08-17T16:34:17.603Z,31.68
2022-08-17T16:36:42.612Z,30.96
2022-08-17T16:39:26.113Z,31.71
2022-08-17T16:41:54.802Z,28.68
2022-08-17T16:44:23.363Z,30.79
2022-08-17T16:46:51.490Z,30.16
2022-08-17T16:49:24.507Z,28.74
2022-08-17T16:52:07.661Z,29.09
2022-08-17T16:54:39.200Z,30.18
2022-08-17T16:57:07.122Z,30.39
2022-08-17T16:59:40.925Z,32.27
2022-08-17T17:02:14.860Z,31.57
2022-08-17T17:04:51.108Z,32.23
2022-08-17T17:07:38.817Z,34.07
2022-08-17T17:10:11.724Z,29.92
2022-08-17T17:13:02.547Z,30.52
2022-08-17T17:15:35.525Z,30.79
2022-08-17T17:18:07.274Z,30.37
2022-08-17T17:20:43.704Z,30.63
2022-08-17T17:23:26.111Z,30.72
2022-08-17T17:26:02.558Z,30.94
2022-08-17T17:28:38.553Z,30.66
2022-08-17T17:31:14.151Z,30.93
2022-08-17T17:33:47.767Z,30.81
2022-08-17T17:36:25.237Z,30.66
2022-08-17T17:38:59.166Z,30.98
2022-08-17T17:41:33.814Z,31.10
2022-08-17T17:44:06.123Z,34.10
2022-08-17T17:46:39.503Z,31.77
2022-08-17T17:49:10.133Z,31.36
2022-08-17T17:52:09.454Z,33.98
2022-08-17T17:54:49.641Z,34.03
2022-08-17T17:57:26.766Z,35.89
2022-08-17T18:00:03.161Z,33.52
2022-08-17T18:02:54.568Z,35.75
2022-08-17T18:05:49.739Z,35.31
2022-08-17T18:08:34.291Z,37.06
2022-08-17T18:11:35.125Z,37.99
2022-08-17T18:14:17.275Z,38.14
2022-08-17T18:16:48.023Z,37.65
2022-08-17T18:19:20.058Z,38.86
2022-08-17T18:21:53.188Z,36.94
2022-08-17T18:24:31.964Z,37.75
2022-08-17T18:27:01.329Z,37.74
2022-08-17T18:29:38.509Z,41.08
2022-08-17T18:32:20.230Z,38.69
2022-08-17T18:34:51.807Z,37.57
2022-08-17T18:37:42.759Z,38.58
2022-08-17T18:40:37.986Z,38.78
2022-08-17T18:43:13.360Z,39.50
2022-08-17T18:45:47.356Z,41.86
2022-08-17T18:48:23.075Z,40.23
2022-08-17T18:50:53.330Z,41.92
2022-08-17T18:53:34.153Z,41.96
2022-08-17T18:56:26.690Z,42.41
2022-08-17T18:59:04.766Z,42.30
2022-08-17T19:01:53.519Z,41.91
2022-08-17T19:04:34.832Z,42.10
2022-08-17T19:07:06.666Z,40.45
2022-08-17T19:09:37.731Z,40.79
2022-08-17T19:12:11.446Z,42.27
2022-08-17T19:14:39.655Z,42.18
2022-08-17T19:17:15.057Z,41.08
2022-08-17T19:19:50.578Z,42.14
2022-08-17T19:22:30.650Z,42.17
2022-08-17T19:25:12.543Z,42.21
2022-08-17T19:27:51.481Z,43.22
2022-08-17T19:30:26.121Z,42.30
2022-08-17T19:32:57.689Z,42.92
2022-08-17T19:35:34.727Z,44.60
2022-08-17T19:38:12.689Z,42.14
2022-08-17T19:40:59.129Z,42.10
2022-08-17T19:43:39.425Z,42.79
2022-08-17T19:46:16.242Z,43.04
2022-08-17T19:48:53.407Z,42.30
2022-08-17T19:51:28.567Z,42.58
2022-08-17T19:54:06.682Z,43.03
2022-08-17T19:56:43.479Z,41.29
2022-08-17T19:59:21.086Z,41.28
2022-08-17T20:01:54.012Z,42.14
2022-08-17T20:04:41.682Z,42.35
2022-08-17T20:07:17.671Z,42.37
2022-08-17T20:09:51.484Z,41.71
2022-08-17T20:12:22.813Z,42.16
2022-08-17T20:14:57.207Z,41.83
2022-08-17T20:17:28.624Z,42.12
2022-08-17T20:20:06.438Z,42.56
2022-08-17T20:22:51.856Z,42.64
2022-08-17T20:25:30.257Z,41.48
2022-08-17T20:28:06.637Z,41.81
2022-08-17T20:30:38.495Z,42.84
2022-08-17T20:33:13.187Z,41.31
2022-08-17T20:36:03.124Z,42.31
2022-08-17T20:38:48.873Z,42.58
2022-08-17T20:41:20.816Z,43.67
2022-08-17T20:44:06.350Z,42.72
2022-08-17T20:46:52.852Z,42.38
2022-08-17T20:49:27.827Z,44.33
2022-08-17T20:52:02.842Z,43.99
2022-08-17T20:54:50.403Z,45.70
2022-08-17T20:57:49.547Z,44.07
2022-08-17T21:00:46.324Z,44.42
2022-08-17T21:03:50.496Z,43.30
2022-08-17T21:06:23.008Z,44.29
2022-08-17T21:08:57.584Z,44.70
2022-08-17T21:12:04.409Z,44.16
2022-08-17T21:14:56.188Z,44.40
2022-08-17T21:17:44.670Z,45.09
2022-08-17T21:20:35.185Z,44.47
2022-08-17T21:23:17.150Z,43.39
2022-08-17T21:26:12.844Z,44.35
2022-08-17T21:29:00.530Z,45.03
2022-08-17T21:31:35.770Z,45.10
2022-08-17T21:34:27.027Z,44.47
2022-08-17T21:36:56.616Z,45.33
2022-08-17T21:39:33.097Z,46.11
2022-08-17T21:42:03.471Z,45.35
2022-08-17T21:44:34.887Z,45.06
2022-08-17T21:47:20.272Z,45.91
2022-08-17T21:49:48.334Z,44.73
2022-08-17T21:52:18.992Z,44.79
2022-08-17T21:54:52.225Z,46.97
2022-08-17T21:57:26.510Z,46.64
2022-08-17T21:59:57.327Z,46.65
2022-08-17T22:02:27.951Z,47.39
2022-08-17T22:05:02.911Z,46.90
2022-08-17T22:07:42.079Z,47.36
2022-08-17T22:10:30.495Z,47.39
2022-08-17T22:13:17.008Z,47.44
2022-08-17T22:15:47.136Z,48.90
2022-08-17T22:18:20.447Z,49.06
2022-08-17T22:20:51.582Z,48.53
2022-08-17T22:23:43.557Z,48.62
2022-08-17T22:26:14.507Z,48.45
2022-08-17T22:28:47.515Z,47.33
2022-08-17T22:31:17.781Z,49.31
2022-08-17T22:33:47.994Z,49.37
2022-08-17T22:36:29.529Z,48.37
2022-08-17T22:38:59.364Z,47.72
2022-08-17T22:41:43.793Z,49.08
2022-08-17T22:44:27.157Z,49.58
2022-08-17T22:46:59.021Z,49.65
2022-08-17T22:49:33.220Z,49.38
2022-08-17T22:52:04.173Z,49.57
2022-08-17T22:54:49.833Z,50.23
2022-08-17T22:57:51.455Z,50.69
2022-08-17T23:00:34.554Z,50.97
2022-08-17T23:03:12.877Z,50.90
2022-08-17T23:05:43.568Z,50.71
2022-08-17T23:08:12.920Z,50.54
2022-08-17T23:10:41.932Z,50.45
2022-08-17T23:13:12.151Z,51.29
2022-08-17T23:15:43.097Z,49.97
2022-08-17T23:18:11.640Z,50.57
2022-08-17T23:20:41.891Z,51.37
2022-08-17T23:23:15.169Z,51.08
2022-08-17T23:25:46.440Z,52.34
2022-08-17T23:28:14.619Z,51.87
2022-08-17T23:30:46.615Z,51.97
2022-08-17T23:33:20.230Z,52.06
2022-08-17T23:35:48.735Z,52.53
2022-08-17T23:38:16.715Z,54.69
2022-08-17T23:40:44.943Z,53.96
2022-08-17T23:43:23.581Z,52.96
2022-08-17T23:45:55.482Z,53.37
2022-08-17T23:48:35.073Z,53.09
2022-08-17T23:51:09.016Z,52.80
2022-08-17T23:53:40.257Z,55.17
2022-08-17T23:56:11.278Z,54.76
2022-08-17T23:58:42.218Z,55.18
